sensor_id;sensor_type;location;lat;lon;timestamp;P1;durP1;ratioP1;P2;durP2;ratioP2
78796;SDS011;68145;52.514;13.460;2023-07-28T00:01:41;4.20;;;2.78;;
78796;SDS011;68145;52.514;13.460;2023-07-28T00:04:07;3.95;;;2.45;;
78796;SDS011;68145;52.514;13.460;2023-07-28T00:06:34;3.90;;;2.53;;
78796;SDS011;68145;52.514;13.460;2023-07-28T00:09:00;5.00;;;3.10;;
78796;SDS011;68145;52.514;13.460;2023-07-28T00:11:27;5.80;;;2.90;;
78796;SDS011;68145;52.514;13.460;2023-07-28T00:13:53;3.60;;;2.40;;
78796;SDS011;68145;52.514;13.460;2023-07-28T00:16:19;4.45;;;2.97;;
78796;SDS011;68145;52.514;13.460;2023-07-28T00:18:45;4.47;;;2.30;;
78796;SDS011;68145;52.514;13.460;2023-07-28T00:21:11;5.63;;;2.55;;
78796;SDS011;68145;52.514;13.460;2023-07-28T00:23:37;3.97;;;2.83;;
78796;SDS011;68145;52.514;13.460;2023-07-28T00:26:03;3.40;;;2.70;;
78796;SDS011;68145;52.514;13.460;2023-07-28T00:28:29;3.72;;;2.78;;
78796;SDS011;68145;52.514;13.460;2023-07-28T00:30:55;4.57;;;3.00;;
78796;SDS011;68145;52.514;13.460;2023-07-28T00:33:21;4.30;;;2.85;;
78796;SDS011;68145;52.514;13.460;2023-07-28T00:35:47;5.10;;;3.50;;
78796;SDS011;68145;52.514;13.460;2023-07-28T00:38:13;4.82;;;3.20;;
78796;SDS011;68145;52.514;13.460;2023-07-28T00:40:39;4.32;;;3.47;;
78796;SDS011;68145;52.514;13.460;2023-07-28T00:43:05;4.82;;;3.42;;
78796;SDS011;68145;52.514;13.460;2023-07-28T00:45:32;4.93;;;4.07;;
78796;SDS011;68145;52.514;13.460;2023-07-28T00:47:58;4.75;;;3.75;;
78796;SDS011;68145;52.514;13.460;2023-07-28T00:50:25;6.18;;;3.88;;
78796;SDS011;68145;52.514;13.460;2023-07-28T00:52:51;9.48;;;5.45;;
78796;SDS011;68145;52.514;13.460;2023-07-28T00:55:17;6.15;;;4.95;;
78796;SDS011;68145;52.514;13.460;2023-07-28T00:57:44;6.95;;;4.30;;
78796;SDS011;68145;52.514;13.460;2023-07-28T01:00:10;6.90;;;4.70;;
78796;SDS011;68145;52.514;13.460;2023-07-28T01:02:36;5.25;;;3.80;;
78796;SDS011;68145;52.514;13.460;2023-07-28T01:05:03;6.15;;;4.05;;
78796;SDS011;68145;52.514;13.460;2023-07-28T01:07:30;5.15;;;3.67;;
78796;SDS011;68145;52.514;13.460;2023-07-28T01:10:02;6.03;;;3.40;;
78796;SDS011;68145;52.514;13.460;2023-07-28T01:12:28;5.13;;;3.30;;
78796;SDS011;68145;52.514;13.460;2023-07-28T01:14:54;5.47;;;3.50;;
78796;SDS011;68145;52.514;13.460;2023-07-28T01:17:20;5.90;;;3.35;;
78796;SDS011;68145;52.514;13.460;2023-07-28T01:19:49;4.85;;;3.15;;
78796;SDS011;68145;52.514;13.460;2023-07-28T01:27:08;3.45;;;2.75;;
78796;SDS011;68145;52.514;13.460;2023-07-28T01:29:34;3.40;;;2.67;;
78796;SDS011;68145;52.514;13.460;2023-07-28T01:32:01;8.43;;;3.58;;
78796;SDS011;68145;52.514;13.460;2023-07-28T01:34:27;6.72;;;3.58;;
78796;SDS011;68145;52.514;13.460;2023-07-28T01:36:53;4.85;;;3.58;;
78796;SDS011;68145;52.514;13.460;2023-07-28T01:39:19;3.85;;;3.00;;
78796;SDS011;68145;52.514;13.460;2023-07-28T01:41:45;4.38;;;3.08;;
78796;SDS011;68145;52.514;13.460;2023-07-28T01:44:11;5.57;;;3.83;;
78796;SDS011;68145;52.514;13.460;2023-07-28T01:46:38;5.63;;;3.45;;
78796;SDS011;68145;52.514;13.460;2023-07-28T01:49:04;4.10;;;2.90;;
78796;SDS011;68145;52.514;13.460;2023-07-28T01:51:30;4.70;;;3.13;;
78796;SDS011;68145;52.514;13.460;2023-07-28T01:53:56;7.40;;;3.88;;
78796;SDS011;68145;52.514;13.460;2023-07-28T01:56:22;6.78;;;3.25;;
78796;SDS011;68145;52.514;13.460;2023-07-28T01:58:48;6.43;;;3.42;;
78796;SDS011;68145;52.514;13.460;2023-07-28T02:01:14;5.88;;;3.60;;
78796;SDS011;68145;52.514;13.460;2023-07-28T02:03:41;4.93;;;3.47;;
78796;SDS011;68145;52.514;13.460;2023-07-28T02:06:07;4.50;;;3.30;;
78796;SDS011;68145;52.514;13.460;2023-07-28T02:08:33;5.15;;;3.63;;
78796;SDS011;68145;52.514;13.460;2023-07-28T02:10:59;6.63;;;3.90;;
78796;SDS011;68145;52.514;13.460;2023-07-28T02:13:25;6.97;;;3.83;;
78796;SDS011;68145;52.514;13.460;2023-07-28T02:15:51;5.03;;;3.60;;
78796;SDS011;68145;52.514;13.460;2023-07-28T02:18:17;6.53;;;3.92;;
78796;SDS011;68145;52.514;13.460;2023-07-28T02:20:43;5.93;;;3.80;;
78796;SDS011;68145;52.514;13.460;2023-07-28T02:23:09;5.38;;;3.65;;
78796;SDS011;68145;52.514;13.460;2023-07-28T02:25:35;6.75;;;4.03;;
78796;SDS011;68145;52.514;13.460;2023-07-28T02:28:01;5.93;;;3.97;;
78796;SDS011;68145;52.514;13.460;2023-07-28T02:30:27;6.78;;;4.22;;
78796;SDS011;68145;52.514;13.460;2023-07-28T02:32:53;6.82;;;3.97;;
78796;SDS011;68145;52.514;13.460;2023-07-28T02:35:19;6.43;;;4.15;;
78796;SDS011;68145;52.514;13.460;2023-07-28T02:37:45;8.07;;;4.13;;
78796;SDS011;68145;52.514;13.460;2023-07-28T02:40:12;6.10;;;4.15;;
78796;SDS011;68145;52.514;13.460;2023-07-28T02:42:38;9.07;;;5.43;;
78796;SDS011;68145;52.514;13.460;2023-07-28T02:45:04;6.20;;;3.90;;
78796;SDS011;68145;52.514;13.460;2023-07-28T02:47:30;7.80;;;4.10;;
78796;SDS011;68145;52.514;13.460;2023-07-28T02:49:56;9.68;;;4.55;;
78796;SDS011;68145;52.514;13.460;2023-07-28T02:52:22;6.32;;;4.00;;
78796;SDS011;68145;52.514;13.460;2023-07-28T02:54:48;5.95;;;3.90;;
78796;SDS011;68145;52.514;13.460;2023-07-28T02:57:15;7.70;;;4.13;;
78796;SDS011;68145;52.514;13.460;2023-07-28T02:59:41;7.65;;;3.80;;
78796;SDS011;68145;52.514;13.460;2023-07-28T03:02:07;7.45;;;4.75;;
78796;SDS011;68145;52.514;13.460;2023-07-28T03:04:33;7.53;;;4.20;;
78796;SDS011;68145;52.514;13.460;2023-07-28T03:06:59;6.97;;;4.25;;
78796;SDS011;68145;52.514;13.460;2023-07-28T03:09:25;7.88;;;4.53;;
78796;SDS011;68145;52.514;13.460;2023-07-28T03:11:51;8.43;;;4.15;;
78796;SDS011;68145;52.514;13.460;2023-07-28T03:14:18;7.60;;;4.10;;
78796;SDS011;68145;52.514;13.460;2023-07-28T03:16:44;7.68;;;4.55;;
78796;SDS011;68145;52.514;13.460;2023-07-28T03:19:10;7.13;;;4.15;;
78796;SDS011;68145;52.514;13.460;2023-07-28T03:21:36;6.40;;;3.88;;
78796;SDS011;68145;52.514;13.460;2023-07-28T03:24:02;7.32;;;4.07;;
78796;SDS011;68145;52.514;13.460;2023-07-28T03:26:29;9.75;;;4.38;;
78796;SDS011;68145;52.514;13.460;2023-07-28T03:28:55;6.03;;;3.95;;
78796;SDS011;68145;52.514;13.460;2023-07-28T03:31:21;7.00;;;4.15;;
78796;SDS011;68145;52.514;13.460;2023-07-28T03:33:47;8.18;;;4.63;;
78796;SDS011;68145;52.514;13.460;2023-07-28T03:36:13;8.15;;;4.40;;
78796;SDS011;68145;52.514;13.460;2023-07-28T03:38:39;7.93;;;4.78;;
78796;SDS011;68145;52.514;13.460;2023-07-28T03:41:05;5.82;;;4.07;;
78796;SDS011;68145;52.514;13.460;2023-07-28T03:43:32;7.15;;;4.25;;
78796;SDS011;68145;52.514;13.460;2023-07-28T03:45:58;8.40;;;4.47;;
78796;SDS011;68145;52.514;13.460;2023-07-28T03:48:24;6.93;;;4.60;;
78796;SDS011;68145;52.514;13.460;2023-07-28T03:50:50;9.15;;;4.97;;
78796;SDS011;68145;52.514;13.460;2023-07-28T03:53:16;8.20;;;4.95;;
78796;SDS011;68145;52.514;13.460;2023-07-28T03:55:42;9.73;;;4.40;;
78796;SDS011;68145;52.514;13.460;2023-07-28T03:58:08;8.95;;;4.60;;
78796;SDS011;68145;52.514;13.460;2023-07-28T04:00:34;8.13;;;4.72;;
78796;SDS011;68145;52.514;13.460;2023-07-28T04:03:00;6.78;;;4.35;;
78796;SDS011;68145;52.514;13.460;2023-07-28T04:05:26;9.40;;;4.60;;
78796;SDS011;68145;52.514;13.460;2023-07-28T04:07:52;7.35;;;4.80;;
78796;SDS011;68145;52.514;13.460;2023-07-28T04:10:18;9.45;;;4.68;;
78796;SDS011;68145;52.514;13.460;2023-07-28T04:12:44;7.13;;;5.13;;
78796;SDS011;68145;52.514;13.460;2023-07-28T04:15:11;8.80;;;4.95;;
78796;SDS011;68145;52.514;13.460;2023-07-28T04:17:37;8.50;;;4.45;;
78796;SDS011;68145;52.514;13.460;2023-07-28T04:20:03;6.45;;;4.20;;
78796;SDS011;68145;52.514;13.460;2023-07-28T04:22:29;7.57;;;4.72;;
78796;SDS011;68145;52.514;13.460;2023-07-28T04:24:55;7.45;;;5.20;;
78796;SDS011;68145;52.514;13.460;2023-07-28T04:27:21;8.77;;;4.82;;
78796;SDS011;68145;52.514;13.460;2023-07-28T04:29:47;6.65;;;4.32;;
78796;SDS011;68145;52.514;13.460;2023-07-28T04:32:13;7.43;;;4.80;;
78796;SDS011;68145;52.514;13.460;2023-07-28T04:34:41;8.55;;;4.80;;
78796;SDS011;68145;52.514;13.460;2023-07-28T04:37:07;8.30;;;5.00;;
78796;SDS011;68145;52.514;13.460;2023-07-28T04:39:33;8.18;;;4.78;;
78796;SDS011;68145;52.514;13.460;2023-07-28T04:41:59;7.03;;;5.03;;
78796;SDS011;68145;52.514;13.460;2023-07-28T04:44:25;7.30;;;4.90;;
78796;SDS011;68145;52.514;13.460;2023-07-28T04:46:51;6.97;;;5.10;;
78796;SDS011;68145;52.514;13.460;2023-07-28T04:49:17;7.20;;;4.80;;
78796;SDS011;68145;52.514;13.460;2023-07-28T04:51:43;9.13;;;5.00;;
78796;SDS011;68145;52.514;13.460;2023-07-28T04:54:09;8.43;;;5.50;;
78796;SDS011;68145;52.514;13.460;2023-07-28T04:56:35;8.10;;;4.82;;
78796;SDS011;68145;52.514;13.460;2023-07-28T04:59:01;8.77;;;5.32;;
78796;SDS011;68145;52.514;13.460;2023-07-28T05:01:27;10.02;;;5.55;;
78796;SDS011;68145;52.514;13.460;2023-07-28T05:03:53;8.60;;;5.72;;
78796;SDS011;68145;52.514;13.460;2023-07-28T05:06:19;6.80;;;5.03;;
78796;SDS011;68145;52.514;13.460;2023-07-28T05:08:45;10.00;;;5.55;;
78796;SDS011;68145;52.514;13.460;2023-07-28T05:11:11;10.18;;;6.03;;
78796;SDS011;68145;52.514;13.460;2023-07-28T05:13:37;8.45;;;5.47;;
78796;SDS011;68145;52.514;13.460;2023-07-28T05:16:03;15.63;;;8.77;;
78796;SDS011;68145;52.514;13.460;2023-07-28T05:18:30;8.35;;;5.28;;
78796;SDS011;68145;52.514;13.460;2023-07-28T05:20:56;9.13;;;5.43;;
78796;SDS011;68145;52.514;13.460;2023-07-28T05:23:22;7.68;;;4.97;;
78796;SDS011;68145;52.514;13.460;2023-07-28T05:25:48;7.72;;;5.38;;
78796;SDS011;68145;52.514;13.460;2023-07-28T05:28:14;7.28;;;5.75;;
78796;SDS011;68145;52.514;13.460;2023-07-28T05:30:40;8.93;;;5.00;;
78796;SDS011;68145;52.514;13.460;2023-07-28T05:33:06;7.47;;;5.32;;
78796;SDS011;68145;52.514;13.460;2023-07-28T05:35:32;7.63;;;5.20;;
78796;SDS011;68145;52.514;13.460;2023-07-28T05:37:58;8.40;;;5.18;;
78796;SDS011;68145;52.514;13.460;2023-07-28T05:40:24;5.93;;;4.60;;
78796;SDS011;68145;52.514;13.460;2023-07-28T05:42:50;7.20;;;5.10;;
78796;SDS011;68145;52.514;13.460;2023-07-28T05:45:16;6.97;;;5.45;;
78796;SDS011;68145;52.514;13.460;2023-07-28T05:47:42;6.78;;;4.80;;
78796;SDS011;68145;52.514;13.460;2023-07-28T05:50:08;6.45;;;4.95;;
78796;SDS011;68145;52.514;13.460;2023-07-28T05:52:35;6.40;;;4.78;;
78796;SDS011;68145;52.514;13.460;2023-07-28T05:55:01;6.53;;;4.85;;
78796;SDS011;68145;52.514;13.460;2023-07-28T05:57:27;7.85;;;5.00;;
78796;SDS011;68145;52.514;13.460;2023-07-28T05:59:53;8.65;;;4.97;;
78796;SDS011;68145;52.514;13.460;2023-07-28T06:02:19;6.05;;;4.70;;
78796;SDS011;68145;52.514;13.460;2023-07-28T06:04:45;7.00;;;5.00;;
78796;SDS011;68145;52.514;13.460;2023-07-28T06:07:11;6.78;;;4.55;;
78796;SDS011;68145;52.514;13.460;2023-07-28T06:09:37;6.70;;;4.90;;
78796;SDS011;68145;52.514;13.460;2023-07-28T06:12:03;7.57;;;4.88;;
78796;SDS011;68145;52.514;13.460;2023-07-28T06:14:30;8.95;;;5.35;;
78796;SDS011;68145;52.514;13.460;2023-07-28T06:16:56;7.47;;;4.90;;
78796;SDS011;68145;52.514;13.460;2023-07-28T06:19:22;7.78;;;4.82;;
78796;SDS011;68145;52.514;13.460;2023-07-28T06:21:49;8.40;;;4.80;;
78796;SDS011;68145;52.514;13.460;2023-07-28T06:24:16;8.27;;;5.22;;
78796;SDS011;68145;52.514;13.460;2023-07-28T06:26:42;6.97;;;5.15;;
78796;SDS011;68145;52.514;13.460;2023-07-28T06:29:08;7.00;;;5.00;;
78796;SDS011;68145;52.514;13.460;2023-07-28T06:31:34;10.55;;;5.22;;
78796;SDS011;68145;52.514;13.460;2023-07-28T06:34:00;7.80;;;5.50;;
78796;SDS011;68145;52.514;13.460;2023-07-28T06:36:26;8.50;;;5.65;;
78796;SDS011;68145;52.514;13.460;2023-07-28T06:38:52;6.65;;;5.05;;
78796;SDS011;68145;52.514;13.460;2023-07-28T06:41:20;6.07;;;4.63;;
78796;SDS011;68145;52.514;13.460;2023-07-28T06:43:46;6.03;;;4.57;;
78796;SDS011;68145;52.514;13.460;2023-07-28T06:46:15;8.10;;;5.25;;
78796;SDS011;68145;52.514;13.460;2023-07-28T06:48:42;6.63;;;4.82;;
78796;SDS011;68145;52.514;13.460;2023-07-28T06:51:08;8.40;;;5.32;;
78796;SDS011;68145;52.514;13.460;2023-07-28T06:53:34;8.70;;;4.85;;
78796;SDS011;68145;52.514;13.460;2023-07-28T06:56:00;7.85;;;5.32;;
78796;SDS011;68145;52.514;13.460;2023-07-28T06:58:26;7.85;;;5.55;;
78796;SDS011;68145;52.514;13.460;2023-07-28T07:00:52;7.78;;;5.40;;
78796;SDS011;68145;52.514;13.460;2023-07-28T07:03:20;7.95;;;6.35;;
78796;SDS011;68145;52.514;13.460;2023-07-28T07:05:48;7.53;;;5.63;;
78796;SDS011;68145;52.514;13.460;2023-07-28T07:08:14;7.43;;;5.35;;
78796;SDS011;68145;52.514;13.460;2023-07-28T07:10:40;5.05;;;3.78;;
78796;SDS011;68145;52.514;13.460;2023-07-28T07:13:12;6.05;;;3.90;;
78796;SDS011;68145;52.514;13.460;2023-07-28T07:15:38;5.63;;;4.10;;
78796;SDS011;68145;52.514;13.460;2023-07-28T07:18:05;5.72;;;4.45;;
78796;SDS011;68145;52.514;13.460;2023-07-28T07:20:33;10.40;;;3.92;;
78796;SDS011;68145;52.514;13.460;2023-07-28T07:23:00;5.63;;;3.97;;
78796;SDS011;68145;52.514;13.460;2023-07-28T07:25:26;4.55;;;3.30;;
78796;SDS011;68145;52.514;13.460;2023-07-28T07:27:52;5.18;;;3.58;;
78796;SDS011;68145;52.514;13.460;2023-07-28T07:30:18;5.30;;;4.30;;
78796;SDS011;68145;52.514;13.460;2023-07-28T07:32:44;4.53;;;3.50;;
78796;SDS011;68145;52.514;13.460;2023-07-28T07:35:10;5.25;;;3.50;;
78796;SDS011;68145;52.514;13.460;2023-07-28T07:37:37;5.25;;;3.28;;
78796;SDS011;68145;52.514;13.460;2023-07-28T07:40:03;4.53;;;3.20;;
78796;SDS011;68145;52.514;13.460;2023-07-28T07:42:40;3.92;;;2.85;;
78796;SDS011;68145;52.514;13.460;2023-07-28T07:45:10;4.20;;;3.42;;
78796;SDS011;68145;52.514;13.460;2023-07-28T07:47:36;5.07;;;2.95;;
78796;SDS011;68145;52.514;13.460;2023-07-28T07:50:02;4.65;;;3.05;;
78796;SDS011;68145;52.514;13.460;2023-07-28T07:54:55;3.60;;;2.67;;
78796;SDS011;68145;52.514;13.460;2023-07-28T07:57:21;3.60;;;2.80;;
78796;SDS011;68145;52.514;13.460;2023-07-28T07:59:47;5.78;;;2.80;;
78796;SDS011;68145;52.514;13.460;2023-07-28T08:02:13;3.55;;;2.40;;
78796;SDS011;68145;52.514;13.460;2023-07-28T08:04:39;4.05;;;2.80;;
78796;SDS011;68145;52.514;13.460;2023-07-28T08:07:05;3.80;;;2.10;;
78796;SDS011;68145;52.514;13.460;2023-07-28T08:09:31;3.40;;;2.20;;
78796;SDS011;68145;52.514;13.460;2023-07-28T08:11:59;3.25;;;2.50;;
78796;SDS011;68145;52.514;13.460;2023-07-28T08:14:25;3.15;;;2.65;;
78796;SDS011;68145;52.514;13.460;2023-07-28T08:16:51;3.40;;;2.40;;
78796;SDS011;68145;52.514;13.460;2023-07-28T08:19:17;4.25;;;3.00;;
78796;SDS011;68145;52.514;13.460;2023-07-28T08:21:44;7.30;;;2.17;;
78796;SDS011;68145;52.514;13.460;2023-07-28T08:24:10;4.20;;;1.95;;
78796;SDS011;68145;52.514;13.460;2023-07-28T08:26:36;2.55;;;1.90;;
78796;SDS011;68145;52.514;13.460;2023-07-28T08:29:03;2.35;;;1.60;;
78796;SDS011;68145;52.514;13.460;2023-07-28T08:31:29;3.05;;;2.10;;
78796;SDS011;68145;52.514;13.460;2023-07-28T08:33:56;3.50;;;2.03;;
78796;SDS011;68145;52.514;13.460;2023-07-28T08:36:22;2.85;;;2.20;;
78796;SDS011;68145;52.514;13.460;2023-07-28T08:38:48;3.65;;;2.05;;
78796;SDS011;68145;52.514;13.460;2023-07-28T08:41:14;3.47;;;2.28;;
78796;SDS011;68145;52.514;13.460;2023-07-28T08:43:40;4.50;;;3.00;;
78796;SDS011;68145;52.514;13.460;2023-07-28T08:46:06;3.70;;;2.67;;
78796;SDS011;68145;52.514;13.460;2023-07-28T08:48:33;3.40;;;3.00;;
78796;SDS011;68145;52.514;13.460;2023-07-28T08:50:59;3.72;;;2.42;;
78796;SDS011;68145;52.514;13.460;2023-07-28T08:53:25;5.07;;;2.53;;
78796;SDS011;68145;52.514;13.460;2023-07-28T08:55:51;2.40;;;1.88;;
78796;SDS011;68145;52.514;13.460;2023-07-28T08:58:18;3.03;;;2.25;;
78796;SDS011;68145;52.514;13.460;2023-07-28T09:00:44;3.10;;;2.40;;
78796;SDS011;68145;52.514;13.460;2023-07-28T09:03:14;3.40;;;2.00;;
78796;SDS011;68145;52.514;13.460;2023-07-28T09:05:40;2.80;;;1.80;;
78796;SDS011;68145;52.514;13.460;2023-07-28T09:08:06;2.85;;;1.95;;
78796;SDS011;68145;52.514;13.460;2023-07-28T09:10:46;2.10;;;1.60;;
78796;SDS011;68145;52.514;13.460;2023-07-28T09:13:14;2.45;;;1.80;;
78796;SDS011;68145;52.514;13.460;2023-07-28T09:15:42;2.67;;;1.90;;
78796;SDS011;68145;52.514;13.460;2023-07-28T09:18:08;3.97;;;2.28;;
78796;SDS011;68145;52.514;13.460;2023-07-28T09:20:35;3.00;;;2.17;;
78796;SDS011;68145;52.514;13.460;2023-07-28T09:23:02;2.00;;;1.70;;
78796;SDS011;68145;52.514;13.460;2023-07-28T09:25:30;4.28;;;1.98;;
78796;SDS011;68145;52.514;13.460;2023-07-28T09:27:56;8.40;;;5.07;;
78796;SDS011;68145;52.514;13.460;2023-07-28T09:30:23;4.75;;;2.30;;
78796;SDS011;68145;52.514;13.460;2023-07-28T09:32:50;4.45;;;2.33;;
78796;SDS011;68145;52.514;13.460;2023-07-28T09:35:16;3.50;;;2.50;;
78796;SDS011;68145;52.514;13.460;2023-07-28T09:37:44;2.60;;;2.00;;
78796;SDS011;68145;52.514;13.460;2023-07-28T09:42:37;6.60;;;3.17;;
78796;SDS011;68145;52.514;13.460;2023-07-28T09:45:04;3.45;;;2.47;;
78796;SDS011;68145;52.514;13.460;2023-07-28T09:47:32;3.10;;;2.17;;
78796;SDS011;68145;52.514;13.460;2023-07-28T09:49:59;3.38;;;2.10;;
78796;SDS011;68145;52.514;13.460;2023-07-28T09:52:28;2.88;;;1.92;;
78796;SDS011;68145;52.514;13.460;2023-07-28T09:54:55;2.85;;;2.20;;
78796;SDS011;68145;52.514;13.460;2023-07-28T09:57:24;2.70;;;2.00;;
78796;SDS011;68145;52.514;13.460;2023-07-28T09:59:51;2.83;;;2.08;;
78796;SDS011;68145;52.514;13.460;2023-07-28T10:02:20;2.60;;;2.00;;
78796;SDS011;68145;52.514;13.460;2023-07-28T10:04:46;3.28;;;2.50;;
78796;SDS011;68145;52.514;13.460;2023-07-28T10:07:12;3.53;;;2.28;;
78796;SDS011;68145;52.514;13.460;2023-07-28T10:09:39;8.77;;;4.55;;
78796;SDS011;68145;52.514;13.460;2023-07-28T10:12:05;6.53;;;3.28;;
78796;SDS011;68145;52.514;13.460;2023-07-28T10:14:34;2.78;;;2.08;;
78796;SDS011;68145;52.514;13.460;2023-07-28T10:17:03;5.50;;;2.33;;
78796;SDS011;68145;52.514;13.460;2023-07-28T10:19:31;4.60;;;2.45;;
78796;SDS011;68145;52.514;13.460;2023-07-28T10:22:04;2.92;;;2.50;;
78796;SDS011;68145;52.514;13.460;2023-07-28T10:29:56;4.15;;;2.72;;
78796;SDS011;68145;52.514;13.460;2023-07-28T10:32:27;3.85;;;2.55;;
78796;SDS011;68145;52.514;13.460;2023-07-28T10:35:00;4.88;;;2.83;;
78796;SDS011;68145;52.514;13.460;2023-07-28T10:37:26;4.00;;;2.58;;
78796;SDS011;68145;52.514;13.460;2023-07-28T10:42:39;4.05;;;2.83;;
78796;SDS011;68145;52.514;13.460;2023-07-28T10:45:05;4.22;;;2.50;;
78796;SDS011;68145;52.514;13.460;2023-07-28T10:47:31;3.72;;;2.80;;
78796;SDS011;68145;52.514;13.460;2023-07-28T10:50:02;3.70;;;2.85;;
78796;SDS011;68145;52.514;13.460;2023-07-28T10:52:29;5.72;;;2.50;;
78796;SDS011;68145;52.514;13.460;2023-07-28T10:54:55;6.68;;;3.28;;
78796;SDS011;68145;52.514;13.460;2023-07-28T10:57:23;3.90;;;2.85;;
78796;SDS011;68145;52.514;13.460;2023-07-28T10:59:51;5.38;;;3.90;;
78796;SDS011;68145;52.514;13.460;2023-07-28T11:02:17;4.80;;;3.80;;
78796;SDS011;68145;52.514;13.460;2023-07-28T11:04:46;7.35;;;3.25;;
78796;SDS011;68145;52.514;13.460;2023-07-28T11:07:12;11.23;;;3.63;;
78796;SDS011;68145;52.514;13.460;2023-07-28T11:09:38;9.63;;;3.30;;
78796;SDS011;68145;52.514;13.460;2023-07-28T11:12:08;7.53;;;3.55;;
78796;SDS011;68145;52.514;13.460;2023-07-28T11:14:35;6.60;;;3.50;;
78796;SDS011;68145;52.514;13.460;2023-07-28T11:17:01;7.43;;;4.03;;
78796;SDS011;68145;52.514;13.460;2023-07-28T11:19:27;5.53;;;3.75;;
78796;SDS011;68145;52.514;13.460;2023-07-28T11:21:54;8.73;;;3.63;;
78796;SDS011;68145;52.514;13.460;2023-07-28T11:24:20;8.73;;;4.05;;
78796;SDS011;68145;52.514;13.460;2023-07-28T11:26:48;8.07;;;4.00;;
78796;SDS011;68145;52.514;13.460;2023-07-28T11:29:15;6.53;;;3.95;;
78796;SDS011;68145;52.514;13.460;2023-07-28T11:31:41;5.88;;;3.85;;
78796;SDS011;68145;52.514;13.460;2023-07-28T11:34:14;4.70;;;3.25;;
78796;SDS011;68145;52.514;13.460;2023-07-28T11:36:41;5.30;;;3.38;;
78796;SDS011;68145;52.514;13.460;2023-07-28T11:39:07;4.43;;;3.22;;
78796;SDS011;68145;52.514;13.460;2023-07-28T11:41:34;7.70;;;4.07;;
78796;SDS011;68145;52.514;13.460;2023-07-28T11:44:00;4.93;;;3.05;;
78796;SDS011;68145;52.514;13.460;2023-07-28T11:46:33;5.50;;;3.80;;
78796;SDS011;68145;52.514;13.460;2023-07-28T11:49:09;5.20;;;3.25;;
78796;SDS011;68145;52.514;13.460;2023-07-28T11:51:43;5.75;;;3.20;;
78796;SDS011;68145;52.514;13.460;2023-07-28T11:54:10;5.65;;;3.72;;
78796;SDS011;68145;52.514;13.460;2023-07-28T11:56:39;4.18;;;3.10;;
78796;SDS011;68145;52.514;13.460;2023-07-28T11:59:05;4.05;;;2.90;;
78796;SDS011;68145;52.514;13.460;2023-07-28T12:01:32;3.47;;;2.80;;
78796;SDS011;68145;52.514;13.460;2023-07-28T12:03:58;4.55;;;3.20;;
78796;SDS011;68145;52.514;13.460;2023-07-28T12:06:25;3.92;;;2.92;;
78796;SDS011;68145;52.514;13.460;2023-07-28T12:08:52;4.68;;;3.08;;
78796;SDS011;68145;52.514;13.460;2023-07-28T12:11:20;3.80;;;2.40;;
78796;SDS011;68145;52.514;13.460;2023-07-28T12:13:52;4.50;;;3.15;;
78796;SDS011;68145;52.514;13.460;2023-07-28T12:19:02;4.10;;;2.65;;
78796;SDS011;68145;52.514;13.460;2023-07-28T12:21:29;3.80;;;2.50;;
78796;SDS011;68145;52.514;13.460;2023-07-28T12:23:56;3.22;;;2.47;;
78796;SDS011;68145;52.514;13.460;2023-07-28T12:26:22;3.28;;;2.33;;
78796;SDS011;68145;52.514;13.460;2023-07-28T12:28:49;3.90;;;2.50;;
78796;SDS011;68145;52.514;13.460;2023-07-28T12:31:15;2.78;;;1.92;;
78796;SDS011;68145;52.514;13.460;2023-07-28T12:33:41;3.00;;;2.15;;
78796;SDS011;68145;52.514;13.460;2023-07-28T12:36:07;3.83;;;2.10;;
78796;SDS011;68145;52.514;13.460;2023-07-28T12:38:33;2.80;;;2.15;;
78796;SDS011;68145;52.514;13.460;2023-07-28T12:40:59;3.38;;;2.30;;
78796;SDS011;68145;52.514;13.460;2023-07-28T12:43:25;4.03;;;2.42;;
78796;SDS011;68145;52.514;13.460;2023-07-28T12:45:51;2.97;;;2.10;;
78796;SDS011;68145;52.514;13.460;2023-07-28T12:48:18;3.97;;;2.40;;
78796;SDS011;68145;52.514;13.460;2023-07-28T12:50:44;2.90;;;1.98;;
78796;SDS011;68145;52.514;13.460;2023-07-28T12:53:12;3.10;;;2.20;;
78796;SDS011;68145;52.514;13.460;2023-07-28T12:55:39;3.60;;;2.03;;
78796;SDS011;68145;52.514;13.460;2023-07-28T12:58:05;6.43;;;2.40;;
78796;SDS011;68145;52.514;13.460;2023-07-28T13:00:31;3.50;;;2.53;;
78796;SDS011;68145;52.514;13.460;2023-07-28T13:02:57;4.63;;;3.38;;
78796;SDS011;68145;52.514;13.460;2023-07-28T13:05:23;3.80;;;2.80;;
78796;SDS011;68145;52.514;13.460;2023-07-28T13:07:49;3.25;;;2.30;;
78796;SDS011;68145;52.514;13.460;2023-07-28T13:10:17;3.30;;;2.40;;
78796;SDS011;68145;52.514;13.460;2023-07-28T13:12:43;3.78;;;3.17;;
78796;SDS011;68145;52.514;13.460;2023-07-28T13:15:09;2.90;;;2.40;;
78796;SDS011;68145;52.514;13.460;2023-07-28T13:17:35;3.92;;;2.28;;
78796;SDS011;68145;52.514;13.460;2023-07-28T13:20:02;3.83;;;2.33;;
78796;SDS011;68145;52.514;13.460;2023-07-28T13:22:28;3.55;;;2.35;;
78796;SDS011;68145;52.514;13.460;2023-07-28T13:24:54;2.95;;;2.38;;
78796;SDS011;68145;52.514;13.460;2023-07-28T13:27:20;4.03;;;2.80;;
78796;SDS011;68145;52.514;13.460;2023-07-28T13:29:46;3.17;;;2.10;;
78796;SDS011;68145;52.514;13.460;2023-07-28T13:32:22;3.28;;;2.40;;
78796;SDS011;68145;52.514;13.460;2023-07-28T13:34:49;4.55;;;2.60;;
78796;SDS011;68145;52.514;13.460;2023-07-28T13:37:15;3.85;;;2.63;;
78796;SDS011;68145;52.514;13.460;2023-07-28T13:39:41;4.03;;;2.70;;
78796;SDS011;68145;52.514;13.460;2023-07-28T13:42:08;4.72;;;2.60;;
78796;SDS011;68145;52.514;13.460;2023-07-28T13:44:34;3.50;;;2.45;;
78796;SDS011;68145;52.514;13.460;2023-07-28T13:47:00;4.45;;;3.25;;
78796;SDS011;68145;52.514;13.460;2023-07-28T13:49:26;3.40;;;2.60;;
78796;SDS011;68145;52.514;13.460;2023-07-28T13:51:52;3.72;;;2.75;;
78796;SDS011;68145;52.514;13.460;2023-07-28T13:54:18;3.90;;;2.60;;
78796;SDS011;68145;52.514;13.460;2023-07-28T13:56:44;3.88;;;2.70;;
78796;SDS011;68145;52.514;13.460;2023-07-28T13:59:10;3.63;;;2.70;;
78796;SDS011;68145;52.514;13.460;2023-07-28T14:01:36;4.07;;;2.67;;
78796;SDS011;68145;52.514;13.460;2023-07-28T14:04:02;4.28;;;3.05;;
78796;SDS011;68145;52.514;13.460;2023-07-28T14:06:29;4.18;;;3.10;;
78796;SDS011;68145;52.514;13.460;2023-07-28T14:08:55;4.15;;;2.55;;
78796;SDS011;68145;52.514;13.460;2023-07-28T14:11:21;3.80;;;2.90;;
78796;SDS011;68145;52.514;13.460;2023-07-28T14:13:47;4.90;;;2.70;;
78796;SDS011;68145;52.514;13.460;2023-07-28T14:16:13;3.20;;;2.20;;
78796;SDS011;68145;52.514;13.460;2023-07-28T14:18:39;3.20;;;2.50;;
78796;SDS011;68145;52.514;13.460;2023-07-28T14:21:05;3.13;;;2.40;;
78796;SDS011;68145;52.514;13.460;2023-07-28T14:23:31;3.50;;;2.25;;
78796;SDS011;68145;52.514;13.460;2023-07-28T14:25:57;3.55;;;2.42;;
78796;SDS011;68145;52.514;13.460;2023-07-28T14:28:24;3.15;;;2.40;;
78796;SDS011;68145;52.514;13.460;2023-07-28T14:30:50;3.78;;;2.50;;
78796;SDS011;68145;52.514;13.460;2023-07-28T14:33:17;5.10;;;2.65;;
78796;SDS011;68145;52.514;13.460;2023-07-28T14:35:43;2.85;;;2.20;;
78796;SDS011;68145;52.514;13.460;2023-07-28T14:38:10;3.38;;;2.08;;
78796;SDS011;68145;52.514;13.460;2023-07-28T14:40:36;3.42;;;2.13;;
78796;SDS011;68145;52.514;13.460;2023-07-28T14:43:03;3.35;;;2.35;;
78796;SDS011;68145;52.514;13.460;2023-07-28T14:45:29;3.45;;;2.55;;
78796;SDS011;68145;52.514;13.460;2023-07-28T14:47:55;3.58;;;2.55;;
78796;SDS011;68145;52.514;13.460;2023-07-28T14:50:21;4.03;;;2.60;;